Time;durP1;ratioP1;P1;durP2;ratioP2;P2;SDS_P1;SDS_P2;PMS_P1;PMS_P2;Temp;Humidity;BMP_temperature;BMP_pressure;BME280_temperature;BME280_humidity;BME280_pressure;Samples;Min_cycle;Max_cycle;Signal;HPM_P1;HPM_P2
2022/01/22 00:02:26;;;;;;;26.48;4.53;;;;;;;;;;4936215;29;20055;-72
2022/01/22 00:04:52;;;;;;;11.55;3.55;;;;;;;;;;4935609;29;20030;-73
2022/01/22 00:07:18;;;;;;;7.85;3.22;;;;;;;;;;4935141;29;20054;-73
2022/01/22 00:09:50;;;;;;;7.18;2.72;;;;;;;;;;4935260;29;20035;-73
2022/01/22 00:15:10;;;;;;;8.63;4.05;;;;;;;;;;4948534;29;20044;-73
2022/01/22 00:17:37;;;;;;;10.00;3.75;;;;;;;;;;4938086;29;20046;-73
2022/01/22 00:20:04;;;;;;;7.72;3.65;;;;;;;;;;4937031;28;20050;-73
2022/01/22 00:22:33;;;;;;;6.55;2.80;;;;;;;;;;4937229;29;20501;-73
2022/01/22 00:25:01;;;;;;;8.63;3.20;;;;;;;;;;4936887;29;20431;-72
2022/01/22 00:27:28;;;;;;;7.28;2.05;;;;;;;;;;4934369;29;20032;-73
2022/01/22 00:29:55;;;;;;;6.43;2.60;;;;;;;;;;4935611;29;20218;-73
2022/01/22 00:32:22;;;;;;;6.50;2.55;;;;;;;;;;4937952;29;20047;-72
2022/01/22 00:34:48;;;;;;;6.70;2.60;;;;;;;;;;4937008;29;20079;-73
2022/01/22 00:37:14;;;;;;;6.47;2.45;;;;;;;;;;4921185;29;20040;-72
2022/01/22 00:39:41;;;;;;;6.78;1.98;;;;;;;;;;4935896;29;20043;-72
2022/01/22 00:42:12;;;;;;;7.07;2.30;;;;;;;;;;4933708;29;20424;-73
2022/01/22 00:44:38;;;;;;;;;;;;;;;;;;4938456;29;20035;-73
2022/01/22 00:47:05;;;;;;;7.00;1.65;;;;;;;;;;4936684;29;20383;-73
2022/01/22 00:49:32;;;;;;;4.55;2.00;;;;;;;;;;4936791;29;20049;-73
2022/01/22 00:51:58;;;;;;;4.18;1.73;;;;;;;;;;4933942;29;20038;-72
2022/01/22 00:54:24;;;;;;;4.65;2.00;;;;;;;;;;4934783;29;20037;-72
2022/01/22 00:56:51;;;;;;;5.30;1.77;;;;;;;;;;4935078;29;20354;-73
2022/01/22 00:59:17;;;;;;;8.18;1.80;;;;;;;;;;4935100;29;20020;-73
2022/01/22 01:01:44;;;;;;;7.78;2.85;;;;;;;;;;4934568;29;20432;-72
2022/01/22 01:04:11;;;;;;;5.47;2.13;;;;;;;;;;4934670;29;20038;-73
2022/01/22 01:06:38;;;;;;;7.82;2.30;;;;;;;;;;4934390;29;20040;-73
2022/01/22 01:09:06;;;;;;;8.63;2.47;;;;;;;;;;4934354;29;20038;-73
2022/01/22 01:11:36;;;;;;;6.88;1.75;;;;;;;;;;4935481;29;20031;-73
2022/01/22 01:14:05;;;;;;;7.07;1.60;;;;;;;;;;4934467;29;20503;-73
2022/01/22 01:35:22;;;;;;;7.72;1.98;;;;;;;;;;4938988;29;20023;-73
2022/01/22 01:37:51;;;;;;;6.90;2.20;;;;;;;;;;4937926;29;20038;-73
2022/01/22 01:40:21;;;;;;;8.88;2.92;;;;;;;;;;4957243;28;20024;-73
2022/01/22 01:43:04;;;;;;;10.90;4.00;;;;;;;;;;4938488;29;20036;-73
2022/01/22 01:45:30;;;;;;;6.50;2.13;;;;;;;;;;4938119;29;20036;-73
2022/01/22 01:47:59;;;;;;;12.75;4.85;;;;;;;;;;4938226;29;20040;-73
2022/01/22 01:50:26;;;;;;;21.35;6.07;;;;;;;;;;4938129;29;20049;-73
2022/01/22 01:53:09;;;;;;;14.88;5.35;;;;;;;;;;4938021;29;20037;-73
2022/01/22 01:57:27;;;;;;;11.50;3.08;;;;;;;;;;4937806;29;20433;-73
2022/01/22 01:58:23;;;;;;;8.20;2.85;;;;;;;;;;4934131;29;20035;-73
2022/01/22 02:00:50;;;;;;;11.05;4.43;;;;;;;;;;4938080;29;20028;-72
2022/01/22 02:03:17;;;;;;;6.72;2.70;;;;;;;;;;4938194;29;20058;-72
2022/01/22 02:05:44;;;;;;;6.57;2.50;;;;;;;;;;4937903;29;20056;-73
2022/01/22 02:08:12;;;;;;;7.18;2.30;;;;;;;;;;4937639;29;20051;-72
2022/01/22 02:10:44;;;;;;;6.07;1.92;;;;;;;;;;4937566;29;20030;-73
2022/01/22 02:24:15;;;;;;;3.65;1.63;;;;;;;;;;4937215;29;20028;-73
2022/01/22 02:26:50;;;;;;;8.43;2.00;;;;;;;;;;4938020;29;20400;-73
2022/01/22 02:29:17;;;;;;;5.43;1.85;;;;;;;;;;4937712;29;20050;-72
2022/01/22 02:31:58;;;;;;;5.43;1.90;;;;;;;;;;4937282;29;20032;-73
2022/01/22 02:34:39;;;;;;;3.75;1.63;;;;;;;;;;4936792;28;20023;-73
2022/01/22 02:37:12;;;;;;;4.18;1.80;;;;;;;;;;4937047;29;20412;-73
2022/01/22 02:39:43;;;;;;;11.98;1.92;;;;;;;;;;4937102;29;20685;-73
2022/01/22 02:42:10;;;;;;;5.15;1.60;;;;;;;;;;4937061;29;20086;-72
2022/01/22 02:44:46;;;;;;;8.68;2.30;;;;;;;;;;4937852;29;20035;-73
2022/01/22 02:47:15;;;;;;;7.07;2.83;;;;;;;;;;4937245;29;20039;-73
2022/01/22 02:49:41;;;;;;;11.77;3.10;;;;;;;;;;4936735;29;20024;-73
2022/01/22 02:52:08;;;;;;;11.43;4.32;;;;;;;;;;4936988;29;20028;-73
2022/01/22 02:54:35;;;;;;;11.13;3.55;;;;;;;;;;4937078;29;20086;-73
2022/01/22 02:57:02;;;;;;;11.60;3.25;;;;;;;;;;4936977;29;20039;-72
2022/01/22 02:59:28;;;;;;;8.10;3.05;;;;;;;;;;4937476;29;20036;-73
2022/01/22 03:01:55;;;;;;;11.30;3.25;;;;;;;;;;4936961;29;20038;-73
2022/01/22 03:04:21;;;;;;;9.90;2.60;;;;;;;;;;4936315;29;20074;-72
2022/01/22 03:06:49;;;;;;;5.72;1.90;;;;;;;;;;4936454;29;20043;-73
2022/01/22 03:09:17;;;;;;;5.63;2.20;;;;;;;;;;4936682;29;20049;-73
2022/01/22 03:17:30;;;;;;;2.88;1.85;;;;;;;;;;4936541;29;20062;-72
2022/01/22 03:22:53;;;;;;;4.80;1.63;;;;;;;;;;4936253;29;20027;-73
2022/01/22 03:28:00;;;;;;;6.05;1.98;;;;;;;;;;4936182;29;20034;-73
2022/01/22 03:30:27;;;;;;;4.40;1.50;;;;;;;;;;4936371;29;20020;-72
2022/01/22 03:32:55;;;;;;;4.28;1.92;;;;;;;;;;4936260;29;20027;-72
2022/01/22 03:37:51;;;;;;;2.92;1.77;;;;;;;;;;4935983;29;20034;-72
2022/01/22 03:40:18;;;;;;;3.90;1.48;;;;;;;;;;4936197;29;20032;-72
2022/01/22 03:42:45;;;;;;;5.20;2.33;;;;;;;;;;4936119;29;20024;-72
2022/01/22 03:45:12;;;;;;;4.90;1.98;;;;;;;;;;4936151;29;20028;-72
2022/01/22 03:47:38;;;;;;;5.95;2.13;;;;;;;;;;4936347;29;20043;-71
2022/01/22 03:50:05;;;;;;;6.43;2.08;;;;;;;;;;4935605;29;20032;-72
2022/01/22 03:52:31;;;;;;;5.00;1.85;;;;;;;;;;4935649;29;20408;-72
2022/01/22 03:54:58;;;;;;;9.98;2.15;;;;;;;;;;4935147;29;20030;-72
2022/01/22 03:57:25;;;;;;;5.60;1.90;;;;;;;;;;4935817;29;20032;-72
2022/01/22 03:59:53;;;;;;;5.00;1.85;;;;;;;;;;4935803;29;20020;-71
2022/01/22 04:05:02;;;;;;;4.53;1.70;;;;;;;;;;4935752;29;20034;-72
2022/01/22 04:09:58;;;;;;;3.50;1.40;;;;;;;;;;4935585;29;20408;-73
2022/01/22 04:15:12;;;;;;;4.43;1.90;;;;;;;;;;4935548;29;20039;-73
2022/01/22 04:25:46;;;;;;;8.63;2.20;;;;;;;;;;4934955;29;20069;-72
2022/01/22 04:28:13;;;;;;;6.40;1.90;;;;;;;;;;4935154;29;20034;-73
2022/01/22 04:30:39;;;;;;;5.35;1.60;;;;;;;;;;4934863;28;20032;-73
2022/01/22 04:33:06;;;;;;;7.80;1.77;;;;;;;;;;4935215;29;20038;-73
2022/01/22 04:35:32;;;;;;;6.50;1.92;;;;;;;;;;4935720;29;20032;-73
2022/01/22 04:37:59;;;;;;;5.45;1.60;;;;;;;;;;4934929;29;20028;-72
2022/01/22 04:40:25;;;;;;;6.60;2.03;;;;;;;;;;4934950;29;20027;-72
2022/01/22 04:42:52;;;;;;;2.60;1.73;;;;;;;;;;4934986;29;20024;-72
2022/01/22 04:45:38;;;;;;;6.20;2.03;;;;;;;;;;4965472;28;20028;-72
2022/01/22 04:55:54;;;;;;;6.03;1.83;;;;;;;;;;4934699;29;20209;-73
2022/01/22 04:58:21;;;;;;;5.18;1.95;;;;;;;;;;4934620;28;20028;-73
2022/01/22 05:00:47;;;;;;;4.22;1.60;;;;;;;;;;4934356;29;20020;-72
2022/01/22 05:03:15;;;;;;;6.72;2.05;;;;;;;;;;4934711;29;20031;-73
2022/01/22 05:05:42;;;;;;;4.63;1.83;;;;;;;;;;4935229;29;20082;-73
2022/01/22 05:08:09;;;;;;;6.78;2.05;;;;;;;;;;4934544;29;20051;-73
2022/01/22 05:10:35;;;;;;;8.40;2.40;;;;;;;;;;4934630;29;20035;-73
2022/01/22 05:13:01;;;;;;;5.82;2.10;;;;;;;;;;4934635;29;20024;-73
2022/01/22 05:15:27;;;;;;;5.20;1.95;;;;;;;;;;4934256;28;20031;-73
2022/01/22 05:17:54;;;;;;;5.53;1.90;;;;;;;;;;4934722;29;20503;-72
2022/01/22 05:20:26;;;;;;;8.07;2.60;;;;;;;;;;4935253;29;20030;-73
2022/01/22 05:25:27;;;;;;;11.27;3.30;;;;;;;;;;4934505;29;20098;-73
2022/01/22 05:38:34;;;;;;;7.03;2.63;;;;;;;;;;4949687;29;20512;-73
2022/01/22 05:41:01;;;;;;;4.75;2.50;;;;;;;;;;4934327;29;20031;-73
2022/01/22 05:43:29;;;;;;;7.22;3.22;;;;;;;;;;4934024;29;20050;-73
2022/01/22 05:45:56;;;;;;;13.05;4.32;;;;;;;;;;4934147;29;20030;-72
2022/01/22 05:48:22;;;;;;;10.48;3.13;;;;;;;;;;4934084;29;20044;-72
2022/01/22 05:50:53;;;;;;;8.90;2.53;;;;;;;;;;4934770;29;20023;-73
2022/01/22 06:01:17;;;;;;;7.55;2.60;;;;;;;;;;4965150;28;20032;-73
2022/01/22 06:03:44;;;;;;;6.32;2.45;;;;;;;;;;4934061;29;20366;-73
2022/01/22 06:06:11;;;;;;;10.23;2.95;;;;;;;;;;4933864;29;20062;-73
2022/01/22 06:08:46;;;;;;;8.40;3.28;;;;;;;;;;4934600;29;20036;-72
2022/01/22 06:11:21;;;;;;;5.80;3.03;;;;;;;;;;4934263;29;20028;-72
2022/01/22 06:13:48;;;;;;;5.78;2.60;;;;;;;;;;4933474;29;20024;-73
2022/01/22 06:16:15;;;;;;;9.90;3.03;;;;;;;;;;4933893;29;20392;-73
2022/01/22 06:18:42;;;;;;;4.30;2.33;;;;;;;;;;4936361;29;20089;-72
2022/01/22 06:21:09;;;;;;;10.27;3.30;;;;;;;;;;4937413;29;20031;-72
2022/01/22 06:23:36;;;;;;;8.55;4.18;;;;;;;;;;4938151;29;20035;-72
2022/01/22 06:26:02;;;;;;;9.68;3.78;;;;;;;;;;4936854;29;20034;-72
2022/01/22 06:28:29;;;;;;;12.13;4.20;;;;;;;;;;4937275;29;20044;-72
2022/01/22 06:30:56;;;;;;;10.00;4.15;;;;;;;;;;4937259;29;20440;-72
2022/01/22 06:33:22;;;;;;;9.00;4.05;;;;;;;;;;4937219;29;20036;-72
2022/01/22 06:35:48;;;;;;;6.13;3.15;;;;;;;;;;4937530;29;20028;-73
2022/01/22 06:38:15;;;;;;;11.95;4.50;;;;;;;;;;4937616;29;20535;-73
2022/01/22 06:43:07;;;;;;;10.52;3.38;;;;;;;;;;4937001;29;20016;-72
2022/01/22 06:45:34;;;;;;;8.55;3.97;;;;;;;;;;4937095;29;20032;-73
2022/01/22 06:48:00;;;;;;;8.25;3.83;;;;;;;;;;4937086;29;20044;-72
2022/01/22 06:50:26;;;;;;;8.18;3.70;;;;;;;;;;4937560;29;20023;-72
2022/01/22 06:52:57;;;;;;;11.00;4.22;;;;;;;;;;4936863;29;20035;-73
2022/01/22 06:55:41;;;;;;;9.15;4.28;;;;;;;;;;4936541;29;20469;-73
2022/01/22 06:58:07;;;;;;;10.02;3.42;;;;;;;;;;4936773;29;20382;-72
2022/01/22 07:00:34;;;;;;;11.38;3.88;;;;;;;;;;4936857;28;20035;-73
2022/01/22 07:03:00;;;;;;;12.20;3.35;;;;;;;;;;4937006;29;20027;-73
2022/01/22 07:05:26;;;;;;;9.27;3.78;;;;;;;;;;4936983;29;20040;-72
2022/01/22 07:07:53;;;;;;;8.50;3.63;;;;;;;;;;4936472;29;20046;-72
2022/01/22 07:10:19;;;;;;;13.73;4.22;;;;;;;;;;4955270;28;20027;-72
2022/01/22 07:12:46;;;;;;;8.10;3.80;;;;;;;;;;4936540;29;20028;-72
2022/01/22 07:15:12;;;;;;;10.50;4.30;;;;;;;;;;4936686;29;20008;-73
2022/01/22 07:17:40;;;;;;;7.43;3.85;;;;;;;;;;4937169;29;20061;-72
2022/01/22 07:20:13;;;;;;;15.15;5.05;;;;;;;;;;4936369;29;20050;-72
2022/01/22 07:25:06;;;;;;;12.38;5.50;;;;;;;;;;4936241;29;20404;-72
2022/01/22 07:27:32;;;;;;;15.98;6.82;;;;;;;;;;4936895;29;20050;-72
2022/01/22 07:29:59;;;;;;;16.98;6.93;;;;;;;;;;4935467;29;20034;-73
2022/01/22 07:32:33;;;;;;;18.95;8.18;;;;;;;;;;4936968;29;20043;-73
2022/01/22 07:34:59;;;;;;;16.15;6.45;;;;;;;;;;4936165;29;20469;-72
2022/01/22 07:37:26;;;;;;;29.95;11.38;;;;;;;;;;4936088;29;20037;-72
2022/01/22 07:39:52;;;;;;;19.92;7.05;;;;;;;;;;4966560;28;20032;-72
2022/01/22 07:42:19;;;;;;;20.70;7.03;;;;;;;;;;4936267;29;20032;-73
2022/01/22 07:44:45;;;;;;;17.02;5.95;;;;;;;;;;4936587;29;20388;-72
2022/01/22 07:47:11;;;;;;;12.68;5.70;;;;;;;;;;4935718;29;20043;-72
2022/01/22 07:49:38;;;;;;;14.27;6.45;;;;;;;;;;4935950;29;20032;-73
2022/01/22 07:52:06;;;;;;;14.70;6.43;;;;;;;;;;4935703;29;20047;-72
2022/01/22 07:54:33;;;;;;;12.82;6.38;;;;;;;;;;4935578;29;20028;-73
2022/01/22 07:57:02;;;;;;;17.02;6.53;;;;;;;;;;4935787;29;20031;-72
2022/01/22 07:59:28;;;;;;;29.58;12.02;;;;;;;;;;4934407;29;20038;-72
2022/01/22 08:01:55;;;;;;;14.60;6.18;;;;;;;;;;4935510;29;20024;-73
2022/01/22 08:04:24;;;;;;;14.25;6.13;;;;;;;;;;4935977;29;20028;-73
2022/01/22 08:06:52;;;;;;;12.73;6.40;;;;;;;;;;4935487;29;20509;-73
2022/01/22 08:09:19;;;;;;;13.10;5.63;;;;;;;;;;4935294;29;20024;-73
2022/01/22 08:11:45;;;;;;;11.02;5.00;;;;;;;;;;4936217;29;20036;-73
2022/01/22 08:14:12;;;;;;;15.50;5.68;;;;;;;;;;4935339;29;20028;-73
2022/01/22 08:16:38;;;;;;;18.42;7.47;;;;;;;;;;4935379;29;20370;-74
2022/01/22 08:19:05;;;;;;;11.13;6.05;;;;;;;;;;4935407;29;20030;-73
2022/01/22 08:21:31;;;;;;;12.90;6.88;;;;;;;;;;4935338;29;20378;-74
2022/01/22 08:23:58;;;;;;;11.82;6.00;;;;;;;;;;4935132;29;20050;-74
2022/01/22 08:26:29;;;;;;;14.10;6.60;;;;;;;;;;4936054;29;20094;-74
2022/01/22 08:28:58;;;;;;;14.73;7.63;;;;;;;;;;4934974;29;20416;-74
2022/01/22 08:31:51;;;;;;;16.38;7.32;;;;;;;;;;4935108;29;20038;-74
2022/01/22 08:36:57;;;;;;;14.48;7.63;;;;;;;;;;4934696;29;20476;-75
2022/01/22 08:39:23;;;;;;;13.05;7.05;;;;;;;;;;4935276;29;20050;-74
2022/01/22 08:41:50;;;;;;;16.48;7.88;;;;;;;;;;4935431;29;20016;-75
2022/01/22 08:44:16;;;;;;;14.38;7.38;;;;;;;;;;4935610;29;20040;-75
2022/01/22 08:46:42;;;;;;;16.52;7.28;;;;;;;;;;4954058;28;20489;-75
2022/01/22 08:49:09;;;;;;;12.13;5.03;;;;;;;;;;4934749;29;20077;-75
2022/01/22 08:51:39;;;;;;;11.05;4.95;;;;;;;;;;4934550;29;20035;-75
2022/01/22 08:54:07;;;;;;;9.57;5.57;;;;;;;;;;4934912;29;20023;-75
2022/01/22 08:56:33;;;;;;;6.45;3.75;;;;;;;;;;4935395;29;20444;-75
2022/01/22 08:59:00;;;;;;;6.88;4.07;;;;;;;;;;4934823;29;20034;-75
2022/01/22 09:01:26;;;;;;;5.53;3.20;;;;;;;;;;4934913;29;20032;-74
2022/01/22 09:03:53;;;;;;;10.60;5.22;;;;;;;;;;4934861;29;20034;-75
2022/01/22 09:06:20;;;;;;;11.98;5.70;;;;;;;;;;4934323;29;20043;-75
2022/01/22 09:08:50;;;;;;;9.60;6.05;;;;;;;;;;4935497;29;20044;-75
2022/01/22 09:11:17;;;;;;;11.35;6.28;;;;;;;;;;4934426;29;20027;-76
2022/01/22 09:13:44;;;;;;;10.48;5.63;;;;;;;;;;4934801;29;20026;-75
2022/01/22 09:16:10;;;;;;;7.75;3.88;;;;;;;;;;4934356;29;20384;-76
2022/01/22 09:18:37;;;;;;;8.23;4.30;;;;;;;;;;4934428;29;20027;-76
2022/01/22 09:21:04;;;;;;;8.13;4.60;;;;;;;;;;4934305;29;20027;-76
2022/01/22 09:23:32;;;;;;;8.00;3.50;;;;;;;;;;4935148;29;20035;-74
2022/01/22 09:25:58;;;;;;;5.95;3.20;;;;;;;;;;4934404;29;20032;-76
2022/01/22 09:28:25;;;;;;;7.82;3.67;;;;;;;;;;4934207;29;20454;-75
2022/01/22 09:30:52;;;;;;;2.97;1.80;;;;;;;;;;4934226;29;20195;-76
2022/01/22 09:33:18;;;;;;;4.90;2.58;;;;;;;;;;4934608;29;20028;-76
2022/01/22 09:35:45;;;;;;;8.45;2.45;;;;;;;;;;4934783;29;20028;-76
2022/01/22 09:38:11;;;;;;;3.67;2.10;;;;;;;;;;4934146;29;20031;-76
2022/01/22 09:40:38;;;;;;;4.50;2.78;;;;;;;;;;4934364;29;20023;-76
2022/01/22 09:43:04;;;;;;;6.15;2.75;;;;;;;;;;4934210;29;20019;-77
2022/01/22 09:45:31;;;;;;;7.13;4.00;;;;;;;;;;4934340;29;20485;-76
2022/01/22 09:47:59;;;;;;;5.72;3.85;;;;;;;;;;4934279;29;20043;-75
2022/01/22 09:50:26;;;;;;;7.65;3.53;;;;;;;;;;4934682;29;20040;-75
2022/01/22 09:52:53;;;;;;;7.15;3.47;;;;;;;;;;4935426;29;20024;-76
2022/01/22 09:55:21;;;;;;;5.00;2.95;;;;;;;;;;4937808;29;20023;-75
2022/01/22 09:57:47;;;;;;;7.57;3.47;;;;;;;;;;4937881;29;20045;-75
2022/01/22 10:00:15;;;;;;;5.13;2.67;;;;;;;;;;4938384;29;20022;-74
2022/01/22 10:02:41;;;;;;;5.80;3.30;;;;;;;;;;4938375;29;20038;-76
2022/01/22 10:05:26;;;;;;;4.93;2.95;;;;;;;;;;4937327;29;20388;-76
2022/01/22 10:07:53;;;;;;;4.70;2.83;;;;;;;;;;4937606;29;20046;-76
2022/01/22 10:10:20;;;;;;;5.95;2.60;;;;;;;;;;4937758;29;20469;-76
2022/01/22 10:12:47;;;;;;;4.28;2.83;;;;;;;;;;4938014;29;20031;-76
2022/01/22 10:15:16;;;;;;;2.78;2.03;;;;;;;;;;4937630;29;20495;-76
2022/01/22 10:17:43;;;;;;;2.90;2.17;;;;;;;;;;4938443;29;20042;-76
2022/01/22 10:20:24;;;;;;;3.72;2.10;;;;;;;;;;4937147;29;20024;-76
2022/01/22 10:22:52;;;;;;;4.43;2.20;;;;;;;;;;4937418;29;20027;-76
2022/01/22 10:25:23;;;;;;;6.45;2.45;;;;;;;;;;4956415;28;20020;-76
2022/01/22 10:28:03;;;;;;;6.05;2.60;;;;;;;;;;4937466;29;20028;-76
2022/01/22 10:30:41;;;;;;;4.97;2.60;;;;;;;;;;4937534;29;20519;-76
2022/01/22 10:33:32;;;;;;;4.45;2.75;;;;;;;;;;4936950;29;20047;-75
2022/01/22 10:36:19;;;;;;;4.40;2.65;;;;;;;;;;4937402;29;20036;-76
2022/01/22 10:38:50;;;;;;;4.20;3.13;;;;;;;;;;4937922;29;20044;-75
2022/01/22 10:41:20;;;;;;;3.47;2.75;;;;;;;;;;4937695;28;20082;-75
2022/01/22 10:43:53;;;;;;;5.88;3.55;;;;;;;;;;4937221;29;20028;-75
2022/01/22 10:46:21;;;;;;;7.28;4.15;;;;;;;;;;4967840;28;20035;-76
2022/01/22 10:48:57;;;;;;;4.90;3.55;;;;;;;;;;4936652;29;20037;-75
2022/01/22 10:51:23;;;;;;;4.97;2.90;;;;;;;;;;4937410;29;20031;-76
2022/01/22 10:53:56;;;;;;;6.10;2.50;;;;;;;;;;4937240;29;20049;-75
2022/01/22 10:56:23;;;;;;;4.88;2.72;;;;;;;;;;4937734;29;20065;-75
2022/01/22 10:58:56;;;;;;;7.75;2.80;;;;;;;;;;4936687;29;20382;-76
2022/01/22 11:01:23;;;;;;;5.00;2.90;;;;;;;;;;4936810;29;20031;-76
2022/01/22 11:04:02;;;;;;;4.65;2.90;;;;;;;;;;4936471;29;20027;-76
2022/01/22 11:06:28;;;;;;;4.88;2.42;;;;;;;;;;4936551;29;20070;-75
2022/01/22 11:08:55;;;;;;;4.72;2.50;;;;;;;;;;4936804;29;20066;-75
2022/01/22 11:11:23;;;;;;;6.25;2.50;;;;;;;;;;4937302;29;20527;-76
2022/01/22 11:13:49;;;;;;;4.07;2.50;;;;;;;;;;4936736;29;20499;-76
2022/01/22 11:16:17;;;;;;;7.18;2.33;;;;;;;;;;4936425;29;20023;-75
2022/01/22 11:18:44;;;;;;;3.45;2.40;;;;;;;;;;4936651;29;20023;-75
2022/01/22 11:21:11;;;;;;;4.35;2.35;;;;;;;;;;4936666;29;20027;-76
2022/01/22 11:23:37;;;;;;;3.95;2.30;;;;;;;;;;4937172;29;20079;-76
2022/01/22 11:26:04;;;;;;;4.50;2.20;;;;;;;;;;4936316;29;20478;-76
2022/01/22 11:28:30;;;;;;;2.75;2.03;;;;;;;;;;4936045;28;20469;-76
2022/01/22 11:30:58;;;;;;;4.45;2.25;;;;;;;;;;4935919;29;20043;-76
2022/01/22 11:33:25;;;;;;;4.25;2.10;;;;;;;;;;4936527;29;20034;-75
2022/01/22 11:36:07;;;;;;;2.75;2.17;;;;;;;;;;4936720;29;20022;-76
2022/01/22 11:38:39;;;;;;;2.75;1.90;;;;;;;;;;4935287;29;20035;-76
2022/01/22 11:41:10;;;;;;;2.15;1.70;;;;;;;;;;4936046;29;20389;-76
2022/01/22 11:44:09;;;;;;;2.58;1.80;;;;;;;;;;4936255;29;20031;-76
2022/01/22 11:46:37;;;;;;;3.38;2.03;;;;;;;;;;4935514;29;20436;-76
2022/01/22 11:49:11;;;;;;;3.30;2.10;;;;;;;;;;4935919;29;20038;-76
2022/01/22 11:51:37;;;;;;;5.43;2.55;;;;;;;;;;4935944;29;20030;-76
2022/01/22 11:54:04;;;;;;;5.60;2.25;;;;;;;;;;4936076;29;20039;-76
2022/01/22 11:56:50;;;;;;;3.78;2.00;;;;;;;;;;4936396;29;20053;-76
2022/01/22 11:59:16;;;;;;;3.75;1.73;;;;;;;;;;4936078;29;20040;-77
2022/01/22 12:01:52;;;;;;;2.70;1.88;;;;;;;;;;4935650;29;20395;-77
2022/01/22 12:04:20;;;;;;;2.67;2.22;;;;;;;;;;4935405;28;20030;-75
2022/01/22 12:07:05;;;;;;;3.95;1.83;;;;;;;;;;4935614;29;20062;-76
2022/01/22 12:09:33;;;;;;;4.13;1.95;;;;;;;;;;4935674;29;20040;-76
2022/01/22 12:15:05;;;;;;;7.75;3.97;;;;;;;;;;4934641;29;20032;-75
2022/01/22 12:17:52;;;;;;;2.95;2.25;;;;;;;;;;4936108;29;20027;-75
2022/01/22 12:23:06;;;;;;;3.33;1.90;;;;;;;;;;4935442;29;20042;-74
2022/01/22 12:25:35;;;;;;;4.43;2.42;;;;;;;;;;4935472;29;20028;-75
2022/01/22 12:28:05;;;;;;;5.53;2.67;;;;;;;;;;4935135;29;20061;-74
2022/01/22 12:30:34;;;;;;;2.47;1.60;;;;;;;;;;4934944;29;20028;-74
2022/01/22 12:33:01;;;;;;;1.83;1.60;;;;;;;;;;4935479;29;20027;-74
2022/01/22 12:35:35;;;;;;;2.00;1.40;;;;;;;;;;4935507;29;20032;-75
2022/01/22 12:38:47;;;;;;;1.73;1.50;;;;;;;;;;4935231;29;20034;-75
2022/01/22 12:44:06;;;;;;;4.38;2.92;;;;;;;;;;4934711;29;20034;-74
2022/01/22 12:46:33;;;;;;;2.83;1.80;;;;;;;;;;4935047;29;20030;-74
2022/01/22 12:49:00;;;;;;;2.22;1.55;;;;;;;;;;4934746;28;20036;-74
2022/01/22 12:51:26;;;;;;;2.50;1.40;;;;;;;;;;4935032;29;20016;-74
2022/01/22 12:53:53;;;;;;;3.10;1.60;;;;;;;;;;4935057;29;20032;-75
2022/01/22 12:57:09;;;;;;;6.53;4.40;;;;;;;;;;4949922;29;20086;-75
2022/01/22 12:59:10;;;;;;;2.03;1.63;;;;;;;;;;4940220;28;20046;-74
2022/01/22 13:01:43;;;;;;;5.13;3.10;;;;;;;;;;4934767;29;20032;-74
2022/01/22 13:04:09;;;;;;;3.17;1.40;;;;;;;;;;4934486;29;20053;-74
2022/01/22 13:06:38;;;;;;;2.92;1.10;;;;;;;;;;4934528;29;20062;-75
2022/01/22 13:09:05;;;;;;;2.70;1.30;;;;;;;;;;4934707;29;20048;-75
2022/01/22 13:11:33;;;;;;;1.33;1.23;;;;;;;;;;4935240;29;20050;-75
2022/01/22 13:14:00;;;;;;;4.47;1.25;;;;;;;;;;4934161;29;20024;-75
2022/01/22 13:16:26;;;;;;;1.25;1.13;;;;;;;;;;4934468;29;20045;-74
2022/01/22 13:18:56;;;;;;;8.07;1.45;;;;;;;;;;4934621;28;20377;-75
2022/01/22 13:21:24;;;;;;;2.00;1.00;;;;;;;;;;4934569;29;20398;-75
2022/01/22 13:24:00;;;;;;;2.92;1.13;;;;;;;;;;4934786;29;20034;-75
2022/01/22 13:26:39;;;;;;;1.40;1.10;;;;;;;;;;4934140;29;20484;-75
2022/01/22 13:29:24;;;;;;;2.20;0.90;;;;;;;;;;4933717;29;20049;-75
2022/01/22 13:31:59;;;;;;;1.88;1.30;;;;;;;;;;4934227;29;20413;-75
2022/01/22 13:34:43;;;;;;;2.60;1.50;;;;;;;;;;4934199;29;20039;-75
2022/01/22 13:48:30;;;;;;;1.55;1.20;;;;;;;;;;4934185;29;20515;-75
2022/01/22 13:50:56;;;;;;;2.65;1.30;;;;;;;;;;4934260;29;20510;-75
2022/01/22 13:53:23;;;;;;;2.22;1.33;;;;;;;;;;4934652;29;20040;-75
2022/01/22 13:55:59;;;;;;;3.88;1.92;;;;;;;;;;4933915;29;20504;-75
2022/01/22 13:58:26;;;;;;;3.95;1.60;;;;;;;;;;4934210;29;20042;-75
2022/01/22 14:00:52;;;;;;;2.40;1.50;;;;;;;;;;4934135;29;20019;-73
2022/01/22 14:03:32;;;;;;;1.50;1.33;;;;;;;;;;4934270;29;20059;-73
2022/01/22 14:06:00;;;;;;;3.42;1.48;;;;;;;;;;4931696;29;20411;-75
2022/01/22 14:08:32;;;;;;;2.10;1.33;;;;;;;;;;4934697;29;20046;-75
2022/01/22 14:11:06;;;;;;;4.22;1.65;;;;;;;;;;4933948;29;20028;-75
2022/01/22 14:13:33;;;;;;;1.58;1.17;;;;;;;;;;4933910;28;20501;-75
2022/01/22 14:16:18;;;;;;;2.55;1.30;;;;;;;;;;4933789;29;20382;-75
2022/01/22 14:18:45;;;;;;;3.08;1.70;;;;;;;;;;4933955;29;20082;-74
2022/01/22 14:21:19;;;;;;;5.53;1.30;;;;;;;;;;4933844;29;20403;-75
2022/01/22 14:23:46;;;;;;;2.42;1.50;;;;;;;;;;4930561;29;20020;-76
2022/01/22 14:26:29;;;;;;;2.20;1.55;;;;;;;;;;4933468;29;20038;-73
2022/01/22 14:28:55;;;;;;;3.60;2.03;;;;;;;;;;4933755;29;20036;-74
2022/01/22 14:31:27;;;;;;;1.70;1.23;;;;;;;;;;4933814;29;20024;-75
2022/01/22 14:33:54;;;;;;;27.13;15.85;;;;;;;;;;4933929;29;20027;-75
2022/01/22 14:36:22;;;;;;;3.80;1.50;;;;;;;;;;4934088;29;20031;-75
2022/01/22 14:38:58;;;;;;;2.25;1.52;;;;;;;;;;4935775;29;20038;-75
2022/01/22 14:44:24;;;;;;;1.77;1.30;;;;;;;;;;4937007;29;20024;-75
2022/01/22 14:46:53;;;;;;;2.53;1.10;;;;;;;;;;4937099;29;20036;-75
2022/01/22 14:49:30;;;;;;;1.15;0.90;;;;;;;;;;4937063;29;20038;-74
2022/01/22 14:51:56;;;;;;;2.38;1.30;;;;;;;;;;4937180;29;20031;-75
2022/01/22 14:54:24;;;;;;;2.72;1.13;;;;;;;;;;4937035;29;20031;-74
2022/01/22 14:56:50;;;;;;;4.18;1.80;;;;;;;;;;4937551;29;20024;-75
2022/01/22 14:59:18;;;;;;;1.85;1.20;;;;;;;;;;4937369;29;20031;-74
2022/01/22 15:01:45;;;;;;;4.53;1.05;;;;;;;;;;4967862;28;20091;-74
2022/01/22 15:04:11;;;;;;;2.03;1.30;;;;;;;;;;4936832;29;20019;-75
2022/01/22 15:06:38;;;;;;;3.05;1.33;;;;;;;;;;4936581;29;20456;-74
2022/01/22 15:09:05;;;;;;;2.55;1.40;;;;;;;;;;4936314;29;20054;-77
2022/01/22 15:11:34;;;;;;;2.83;1.48;;;;;;;;;;4937328;29;20449;-77
2022/01/22 15:14:02;;;;;;;2.25;1.00;;;;;;;;;;4936546;29;20105;-77
2022/01/22 15:16:36;;;;;;;1.17;1.00;;;;;;;;;;4936800;29;20078;-77
2022/01/22 15:19:04;;;;;;;2.03;1.15;;;;;;;;;;4936438;29;20027;-77
2022/01/22 15:21:31;;;;;;;2.13;1.00;;;;;;;;;;4936887;29;20028;-77
2022/01/22 15:23:57;;;;;;;2.03;1.10;;;;;;;;;;4936169;29;20031;-77
2022/01/22 15:26:23;;;;;;;1.83;1.15;;;;;;;;;;4936942;29;20500;-77
2022/01/22 15:28:50;;;;;;;2.92;1.10;;;;;;;;;;4936282;29;20040;-77
2022/01/22 15:34:26;;;;;;;3.83;2.10;;;;;;;;;;4913947;29;20036;-77
2022/01/22 15:36:53;;;;;;;2.97;1.42;;;;;;;;;;4914309;29;20028;-77
2022/01/22 15:39:20;;;;;;;2.90;1.48;;;;;;;;;;4913904;29;20409;-77
2022/01/22 15:41:46;;;;;;;3.53;1.40;;;;;;;;;;4911633;29;20032;-77
2022/01/22 15:44:13;;;;;;;3.30;1.30;;;;;;;;;;4914111;29;20058;-77
2022/01/22 15:46:41;;;;;;;3.25;1.30;;;;;;;;;;4913881;29;20024;-77
2022/01/22 15:49:13;;;;;;;2.08;1.20;;;;;;;;;;4913740;29;20040;-77
2022/01/22 15:51:39;;;;;;;1.67;1.13;;;;;;;;;;4911122;29;20033;-77
2022/01/22 15:54:05;;;;;;;2.88;1.50;;;;;;;;;;4914053;29;20651;-76
2022/01/22 15:56:32;;;;;;;1.65;1.40;;;;;;;;;;4915427;29;20035;-76
2022/01/22 15:59:01;;;;;;;1.95;1.08;;;;;;;;;;4913659;29;20036;-76
2022/01/22 16:01:28;;;;;;;3.35;1.73;;;;;;;;;;4913642;29;20036;-76
2022/01/22 16:03:57;;;;;;;3.42;1.77;;;;;;;;;;4913380;29;20179;-76
2022/01/22 16:06:34;;;;;;;2.05;1.20;;;;;;;;;;4912992;29;20051;-77
2022/01/22 16:09:01;;;;;;;3.35;1.70;;;;;;;;;;4914312;29;20056;-76
2022/01/22 16:11:27;;;;;;;1.70;1.60;;;;;;;;;;4932822;29;20564;-76
2022/01/22 16:13:53;;;;;;;4.75;1.40;;;;;;;;;;4935495;29;20032;-76
2022/01/22 16:16:19;;;;;;;3.65;1.23;;;;;;;;;;4935449;29;20015;-76
2022/01/22 16:18:46;;;;;;;1.48;1.30;;;;;;;;;;4935589;28;20024;-76
2022/01/22 16:21:12;;;;;;;2.75;1.40;;;;;;;;;;4935001;29;20024;-76
2022/01/22 16:23:38;;;;;;;4.25;1.60;;;;;;;;;;4936330;29;20035;-76
2022/01/22 16:26:05;;;;;;;2.85;1.25;;;;;;;;;;4935328;29;20034;-76
2022/01/22 16:28:31;;;;;;;2.45;1.45;;;;;;;;;;4934997;29;20073;-76
2022/01/22 16:30:57;;;;;;;3.65;1.73;;;;;;;;;;4935375;29;20380;-75
2022/01/22 16:33:24;;;;;;;2.83;1.90;;;;;;;;;;4935368;29;20027;-76
2022/01/22 16:35:53;;;;;;;2.50;1.50;;;;;;;;;;4935331;29;20160;-75
2022/01/22 16:38:20;;;;;;;5.18;2.30;;;;;;;;;;4935552;29;20030;-76
2022/01/22 16:40:47;;;;;;;4.05;2.42;;;;;;;;;;4934990;29;20087;-76
2022/01/22 16:43:14;;;;;;;4.45;2.13;;;;;;;;;;4935075;29;20040;-76
2022/01/22 16:56:18;;;;;;;6.22;3.00;;;;;;;;;;4934590;29;20015;-76
2022/01/22 16:58:48;;;;;;;6.93;3.05;;;;;;;;;;4934645;29;20031;-76
2022/01/22 17:01:25;;;;;;;4.13;2.37;;;;;;;;;;4934532;29;20030;-76
2022/01/22 17:03:53;;;;;;;6.35;3.20;;;;;;;;;;4934837;29;20020;-75
2022/01/22 17:06:20;;;;;;;8.50;3.03;;;;;;;;;;4934859;29;20094;-75
2022/01/22 17:08:48;;;;;;;4.18;2.22;;;;;;;;;;4931171;29;20077;-75